usa flag      new mexico flag

Language: 

LomaPinon History Data from Weather Underground


LomaPinon Weather Station Historical Data
 
Daily Summary for April 24, 2018 Units:  English    Metric   Both
« Previous Day
Next Day »
Daily Weekly Monthly Yearly Custom
  Current: High: Low: Average:
Temperature: 79.3 °F TemperatureF °F 46.9 °F 66.8 °F
Dew Point: 6.4 °F DewpointF °F 6.1 °F 17.9 °F
Humidity: 6 % Humidity % 5 % 18 %
Wind Speed: 2.0 mph WindSpeedMPH mph 0.0 mph 1.3 mph
Wind Gust: 10.0 mph WindSpeedGustMPH mph - -
Wind:SSW - - South
Pressure: 29.67 in PressureIn in 29.67 in -
Precipitation: 0.00 in      
Historical Graphs
 
 
Tabular Data for April 24, 2018
Time Temperature Dew Point Pressure Wind Wind Speed Wind Gust Humidity Rainfall Rate (Hourly) solar
TemperatureF °F DewpointF °F PressureIn in Calm     Humidity % HourlyPrecipIn in SolarRadiationWatts/m^2 W/m2
00:03 58.6 °F 17.6 °F 29.78 in Calm   3.0 mph 20 % 0.00 in 0 W/m2
00:08 58.7 °F 18.8 °F 29.78 in Calm   3.0 mph 21 % 0.00 in 0 W/m2
00:13 58.6 °F 18.7 °F 29.78 in Calm   1.0 mph 21 % 0.00 in 0 W/m2
00:18 58.6 °F 18.7 °F 29.78 in Calm     21 % 0.00 in 0 W/m2
00:23 58.6 °F 17.6 °F 29.78 in Calm   1.0 mph 20 % 0.00 in 0 W/m2
00:28 58.7 °F 17.7 °F 29.78 in Calm   1.0 mph 20 % 0.00 in 0 W/m2
00:33 58.9 °F 17.8 °F 29.78 in Calm   1.0 mph 20 % 0.00 in 0 W/m2
00:38 58.8 °F 17.8 °F 29.78 in Calm   1.0 mph 20 % 0.00 in 0 W/m2
00:43 58.6 °F 17.6 °F 29.78 in Calm     20 % 0.00 in 0 W/m2
00:48 58.3 °F 18.5 °F 29.79 in Calm   3.0 mph 21 % 0.00 in 0 W/m2
00:53 57.7 °F 18.0 °F 29.79 in Calm   3.0 mph 21 % 0.00 in 0 W/m2
00:58 57.5 °F 17.8 °F 29.79 in Calm     21 % 0.00 in 0 W/m2
01:03 57.3 °F 18.7 °F 29.79 in Calm     22 % 0.00 in 0 W/m2
01:08 57.0 °F 18.5 °F 29.79 in Calm     22 % 0.00 in 0 W/m2
01:13 56.8 °F 20.3 °F 29.79 in Calm     24 % 0.00 in 0 W/m2
01:18 56.4 °F 19.0 °F 29.79 in Calm     23 % 0.00 in 0 W/m2
01:23 56.1 °F 20.7 °F 29.80 in Calm     25 % 0.00 in 0 W/m2
01:28 55.8 °F 20.5 °F 29.79 in Calm     25 % 0.00 in 0 W/m2
01:33 55.5 °F 21.1 °F 29.79 in Calm     26 % 0.00 in 0 W/m2
01:38 55.2 °F 21.8 °F 29.79 in Calm     27 % 0.00 in 0 W/m2
01:43 55.0 °F 21.6 °F 29.79 in Calm     27 % 0.00 in 0 W/m2
01:48 54.8 °F 22.3 °F 29.79 in Calm     28 % 0.00 in 0 W/m2
01:53 54.6 °F 22.9 °F 29.79 in Calm     29 % 0.00 in 0 W/m2
01:58 54.5 °F 22.0 °F 29.79 in Calm     28 % 0.00 in 0 W/m2
02:03 54.5 °F 22.9 °F 29.79 in Calm     29 % 0.00 in 0 W/m2
02:08 54.4 °F 21.9 °F 29.80 in Calm     28 % 0.00 in 0 W/m2
02:13 54.4 °F 22.8 °F 29.79 in Calm     29 % 0.00 in 0 W/m2
02:18 54.2 °F 21.8 °F 29.79 in Calm     28 % 0.00 in 0 W/m2
02:23 54.1 °F 22.5 °F 29.79 in Calm     29 % 0.00 in 0 W/m2
02:28 53.9 °F 22.3 °F 29.79 in Calm     29 % 0.00 in 0 W/m2
02:33 53.8 °F 23.1 °F 29.79 in Calm     30 % 0.00 in 0 W/m2
02:39 53.5 °F 22.8 °F 29.79 in Calm     30 % 0.00 in 0 W/m2
02:44 53.2 °F 22.5 °F 29.80 in Calm     30 % 0.00 in 0 W/m2
02:49 53.0 °F 22.4 °F 29.80 in Calm     30 % 0.00 in 0 W/m2
02:54 53.0 °F 23.1 °F 29.79 in Calm     31 % 0.00 in 0 W/m2
02:59 52.9 °F 23.0 °F 29.79 in Calm     31 % 0.00 in 0 W/m2
03:04 52.8 °F 22.2 °F 29.79 in Calm     30 % 0.00 in 0 W/m2
03:09 52.8 °F 23.0 °F 29.79 in Calm     31 % 0.00 in 0 W/m2
03:14 52.6 °F 22.0 °F 29.80 in Calm     30 % 0.00 in 0 W/m2
03:19 52.5 °F 21.1 °F 29.80 in Calm     29 % 0.00 in 0 W/m2
03:24 52.4 °F 21.0 °F 29.80 in Calm   1.0 mph 29 % 0.00 in 0 W/m2
03:29 52.2 °F 20.0 °F 29.80 in Calm   1.0 mph 28 % 0.00 in 0 W/m2
03:34 51.9 °F 18.9 °F 29.80 in Calm     27 % 0.00 in 0 W/m2
03:39 51.8 °F 19.7 °F 29.80 in Calm     28 % 0.00 in 0 W/m2
03:44 51.8 °F 19.7 °F 29.80 in Calm     28 % 0.00 in 0 W/m2
03:49 51.8 °F 18.8 °F 29.80 in Calm   2.0 mph 27 % 0.00 in 0 W/m2
03:54 51.6 °F 17.8 °F 29.81 in Calm   2.0 mph 26 % 0.00 in 0 W/m2
03:59 51.5 °F 17.7 °F 29.81 in Calm     26 % 0.00 in 0 W/m2
04:04 51.4 °F 17.6 °F 29.80 in Calm     26 % 0.00 in 0 W/m2
04:09 51.3 °F 17.5 °F 29.80 in Calm     26 % 0.00 in 0 W/m2
04:14 51.3 °F 17.5 °F 29.80 in Calm     26 % 0.00 in 0 W/m2
04:19 51.2 °F 17.4 °F 29.80 in Calm     26 % 0.00 in 0 W/m2
04:24 51.1 °F 17.4 °F 29.80 in Calm     26 % 0.00 in 0 W/m2
04:29 50.8 °F 17.1 °F 29.81 in Calm     26 % 0.00 in 0 W/m2
04:34 50.6 °F 16.9 °F 29.80 in Calm     26 % 0.00 in 0 W/m2
04:39 50.3 °F 16.7 °F 29.81 in Calm     26 % 0.00 in 0 W/m2
04:41 50.2 °F 16.6 °F 29.81 in Calm     26 % 0.00 in 0 W/m2
04:46 50.2 °F 16.6 °F 29.81 in Calm     26 % 0.00 in 0 W/m2
04:51 50.3 °F 16.7 °F 29.81 in Calm   2.0 mph 26 % 0.00 in 0 W/m2
04:57 50.5 °F 17.7 °F 29.81 in Calm   2.0 mph 27 % 0.00 in 0 W/m2
05:02 50.6 °F 17.8 °F 29.81 in Calm     27 % 0.00 in 0 W/m2
05:07 50.8 °F 24.1 °F 29.82 in Calm     35 % 0.00 in 0 W/m2
05:12 50.7 °F 17.9 °F 29.82 in Calm     27 % 0.00 in 0 W/m2
05:17 50.6 °F 18.6 °F 29.82 in Calm     28 % 0.00 in 0 W/m2
05:22 50.3 °F 17.5 °F 29.81 in Calm     27 % 0.00 in 0 W/m2
05:27 50.2 °F 20.7 °F 29.82 in Calm     31 % 0.00 in 0 W/m2
05:32 50.1 °F 20.6 °F 29.82 in Calm     31 % 0.00 in 0 W/m2
05:37 49.9 °F 17.2 °F 29.82 in Calm     27 % 0.00 in 0 W/m2
05:42 49.7 °F 17.0 °F 29.82 in Calm     27 % 0.00 in 0 W/m2
05:47 49.6 °F 18.6 °F 29.82 in Calm     29 % 0.00 in 0 W/m2
05:52 49.5 °F 20.1 °F 29.82 in Calm     31 % 0.00 in 0 W/m2
05:57 49.4 °F 19.2 °F 29.82 in Calm     30 % 0.00 in 0 W/m2
06:02 49.3 °F 19.1 °F 29.82 in Calm     30 % 0.00 in 0 W/m2
06:05 49.2 °F 19.8 °F 29.82 in Calm     31 % 0.00 in 0 W/m2
06:10 49.0 °F 20.4 °F 29.83 in Calm     32 % 0.00 in 0 W/m2
06:15 48.7 °F 21.5 °F 29.83 in Calm     34 % 0.00 in 0 W/m2
06:20 48.5 °F 19.9 °F 29.83 in Calm     32 % 0.00 in 5 W/m2
06:25 48.2 °F 18.9 °F 29.83 in Calm     31 % 0.00 in 9 W/m2
06:30 48.0 °F 18.8 °F 29.83 in Calm     31 % 0.00 in 14 W/m2
06:35 47.8 °F 20.1 °F 29.84 in Calm     33 % 0.00 in 19 W/m2
06:40 47.5 °F 19.8 °F 29.84 in Calm     33 % 0.00 in 25 W/m2
06:45 47.3 °F 19.6 °F 29.84 in Calm     33 % 0.00 in 32 W/m2
06:50 47.1 °F 18.7 °F 29.85 in Calm     32 % 0.00 in 39 W/m2
06:55 46.9 °F 18.5 °F 29.85 in Calm     32 % 0.00 in 46 W/m2
07:00 46.9 °F 19.3 °F 29.85 in Calm     33 % 0.00 in 47 W/m2
07:05 47.0 °F 18.6 °F 29.85 in Calm     32 % 0.00 in 49 W/m2
07:11 47.4 °F 18.2 °F 29.86 in Calm     31 % 0.00 in 49 W/m2
07:16 48.0 °F 18.8 °F 29.86 in Calm     31 % 0.00 in 58 W/m2
07:21 48.5 °F 18.4 °F 29.86 in Calm     30 % 0.00 in 146 W/m2
07:26 49.3 °F 18.3 °F 29.86 in Calm     29 % 0.00 in 188 W/m2
07:31 50.1 °F 19.0 °F 29.86 in Calm   2.0 mph 29 % 0.00 in 193 W/m2
07:36 50.9 °F 18.9 °F 29.87 in NW 1.0 mph 4.0 mph 28 % 0.00 in 197 W/m2
07:41 51.7 °F 19.6 °F 29.87 in Calm   4.0 mph 28 % 0.00 in 206 W/m2
07:46 52.2 °F 20.9 °F 29.86 in Calm   1.0 mph 29 % 0.00 in 160 W/m2
07:51 52.6 °F 21.2 °F 29.87 in Calm     29 % 0.00 in 174 W/m2
07:56 53.0 °F 21.6 °F 29.86 in Calm     29 % 0.00 in 190 W/m2
08:01 53.4 °F 21.1 °F 29.87 in Calm     28 % 0.00 in 288 W/m2
08:06 53.9 °F 20.6 °F 29.87 in Calm     27 % 0.00 in 295 W/m2
08:11 54.4 °F 21.9 °F 29.87 in Calm     28 % 0.00 in 329 W/m2
08:16 55.1 °F 23.4 °F 29.87 in Calm     29 % 0.00 in 373 W/m2
08:21 55.8 °F 23.1 °F 29.87 in Calm     28 % 0.00 in 380 W/m2
08:26 56.4 °F 23.7 °F 29.87 in Calm     28 % 0.00 in 417 W/m2
08:31 57.2 °F 23.5 °F 29.87 in Calm     27 % 0.00 in 436 W/m2
08:36 58.2 °F 25.2 °F 29.87 in Calm     28 % 0.00 in 434 W/m2
08:41 59.3 °F 22.5 °F 29.87 in Calm     24 % 0.00 in 441 W/m2
08:46 60.4 °F 24.4 °F 29.87 in Calm     25 % 0.00 in 441 W/m2
08:51 61.3 °F 27.0 °F 29.87 in Calm     27 % 0.00 in 457 W/m2
08:56 62.0 °F 24.8 °F 29.87 in Calm     24 % 0.00 in 489 W/m2
09:01 62.9 °F 23.4 °F 29.87 in Calm     22 % 0.00 in 527 W/m2
09:06 63.8 °F 23.1 °F 29.86 in Calm     21 % 0.00 in 534 W/m2
09:11 64.6 °F 25.9 °F 29.86 in Calm     23 % 0.00 in 561 W/m2
09:16 65.4 °F 20.7 °F 29.86 in Calm     18 % 0.00 in 573 W/m2
09:21 66.1 °F 21.3 °F 29.86 in Calm     18 % 0.00 in 594 W/m2
09:26 66.9 °F 20.6 °F 29.86 in Calm     17 % 0.00 in 628 W/m2
09:32 67.8 °F 19.9 °F 29.86 in Calm     16 % 0.00 in 631 W/m2
09:37 68.5 °F 20.5 °F 29.86 in Calm     16 % 0.00 in 654 W/m2
09:42 69.1 °F 22.4 °F 29.86 in Calm     17 % 0.00 in 663 W/m2
09:44 69.3 °F 21.1 °F 29.86 in Calm     16 % 0.00 in 675 W/m2
09:49 69.9 °F 23.1 °F 29.86 in Calm     17 % 0.00 in 668 W/m2
09:53 70.3 °F 21.9 °F 29.85 in Calm     16 % 0.00 in 710 W/m2
09:58 70.8 °F 20.8 °F 29.85 in Calm     15 % 0.00 in 731 W/m2
10:03 71.2 °F 21.1 °F 29.86 in ESE 2.0 mph 3.0 mph 15 % 0.00 in 740 W/m2
10:08 71.6 °F 19.8 °F 29.85 in Calm   3.0 mph 14 % 0.00 in 745 W/m2
10:13 71.8 °F 20.0 °F 29.85 in East 2.0 mph 3.0 mph 14 % 0.00 in 740 W/m2
10:18 72.2 °F 18.6 °F 29.85 in Calm   4.0 mph 13 % 0.00 in 761 W/m2
10:23 72.6 °F 20.6 °F 29.85 in Calm   4.0 mph 14 % 0.00 in 775 W/m2
10:29 73.1 °F 21.0 °F 29.85 in SSW 3.0 mph 3.0 mph 14 % 0.00 in 803 W/m2
10:34 73.6 °F 19.7 °F 29.85 in Calm   3.0 mph 13 % 0.00 in 814 W/m2
10:39 74.1 °F 21.8 °F 29.85 in Calm   3.0 mph 14 % 0.00 in 802 W/m2
10:44 74.6 °F 20.5 °F 29.85 in Calm   4.0 mph 13 % 0.00 in 819 W/m2
10:49 74.7 °F 20.5 °F 29.85 in SSE 2.0 mph 4.0 mph 13 % 0.00 in 823 W/m2
10:54 74.6 °F 20.5 °F 29.84 in Calm   4.0 mph 13 % 0.00 in 814 W/m2
10:59 74.3 °F 20.2 °F 29.85 in Calm   4.0 mph 13 % 0.00 in 833 W/m2
11:04 74.6 °F 20.5 °F 29.84 in Calm   4.0 mph 13 % 0.00 in 828 W/m2
11:09 75.0 °F 22.5 °F 29.84 in South 2.0 mph 2.0 mph 14 % 0.00 in 872 W/m2
11:14 75.8 °F 19.5 °F 29.84 in SSE 2.0 mph 4.0 mph 12 % 0.00 in 909 W/m2
11:19 76.2 °F 19.8 °F 29.84 in Calm   4.0 mph 12 % 0.00 in 921 W/m2
11:24 76.7 °F 20.2 °F 29.84 in Calm   4.0 mph 12 % 0.00 in 770 W/m2
11:29 77.2 °F 20.6 °F 29.84 in Calm   5.0 mph 12 % 0.00 in 939 W/m2
11:34 77.8 °F 23.0 °F 29.84 in Calm   5.0 mph 13 % 0.00 in 893 W/m2
11:39 78.4 °F 21.5 °F 29.83 in South 1.0 mph 6.0 mph 12 % 0.00 in 844 W/m2
11:44 78.8 °F 21.9 °F 29.83 in Calm   6.0 mph 12 % 0.00 in 886 W/m2
11:49 79.3 °F 20.2 °F 29.83 in SSE 1.0 mph 9.0 mph 11 % 0.00 in 911 W/m2
11:54 79.7 °F 20.5 °F 29.83 in Calm   9.0 mph 11 % 0.00 in 926 W/m2
11:59 80.0 °F 20.7 °F 29.82 in SSW 3.0 mph 5.0 mph 11 % 0.00 in 954 W/m2
12:04 80.4 °F 21.0 °F 29.82 in SSE 1.0 mph 10.0 mph 11 % 0.00 in 1000 W/m2
12:09 80.6 °F 21.2 °F 29.82 in South 3.0 mph 10.0 mph 11 % 0.00 in 988 W/m2
12:14 80.7 °F 21.3 °F 29.81 in SE 4.0 mph 10.0 mph 11 % 0.00 in 1013 W/m2
12:19 80.4 °F 21.0 °F 29.81 in SSE 6.0 mph 10.0 mph 11 % 0.00 in 1004 W/m2
12:25 80.5 °F 21.1 °F 29.81 in Calm   10.0 mph 11 % 0.00 in 1013 W/m2
12:30 80.3 °F 21.0 °F 29.80 in South 5.0 mph 7.0 mph 11 % 0.00 in 998 W/m2
12:35 80.3 °F 21.0 °F 29.80 in SSE 4.0 mph 8.0 mph 11 % 0.00 in 984 W/m2
12:40 80.3 °F 21.0 °F 29.80 in ESE 5.0 mph 12.0 mph 11 % 0.00 in 1004 W/m2
12:45 80.1 °F 20.8 °F 29.80 in Calm   12.0 mph 11 % 0.00 in 1005 W/m2
12:50 80.2 °F 18.7 °F 29.80 in South 4.0 mph 10.0 mph 10 % 0.00 in 1000 W/m2
12:55 80.5 °F 18.9 °F 29.79 in South 2.0 mph 10.0 mph 10 % 0.00 in 997 W/m2
13:00 80.8 °F 21.3 °F 29.79 in SE 1.0 mph 8.0 mph 11 % 0.00 in 1002 W/m2
13:05 80.8 °F 21.3 °F 29.79 in ESE 3.0 mph 10.0 mph 11 % 0.00 in 981 W/m2
13:10 80.9 °F 21.4 °F 29.79 in SSE 5.0 mph 10.0 mph 11 % 0.00 in 976 W/m2
13:15 81.2 °F 19.4 °F 29.78 in South 2.0 mph 7.0 mph 10 % 0.00 in 997 W/m2
13:20 81.6 °F 19.7 °F 29.78 in Calm   5.0 mph 10 % 0.00 in 991 W/m2
13:25 82.1 °F 17.6 °F 29.78 in South 7.0 mph 13.0 mph 9 % 0.00 in 983 W/m2
13:30 82.1 °F 20.1 °F 29.77 in SE 3.0 mph 13.0 mph 10 % 0.00 in 972 W/m2
13:35 82.4 °F 17.9 °F 29.77 in Calm   11.0 mph 9 % 0.00 in 981 W/m2
13:40 82.7 °F 20.6 °F 29.77 in South 3.0 mph 8.0 mph 10 % 0.00 in 954 W/m2
13:45 82.9 °F 18.2 °F 29.77 in East 1.0 mph 8.0 mph 9 % 0.00 in 983 W/m2
13:50 83.0 °F 18.3 °F 29.77 in South 3.0 mph 12.0 mph 9 % 0.00 in 962 W/m2
13:55 83.0 °F 18.3 °F 29.76 in Calm   12.0 mph 9 % 0.00 in 953 W/m2
14:00 83.5 °F 21.2 °F 29.76 in WNW 2.0 mph 10.0 mph 10 % 0.00 in 939 W/m2
14:05 83.6 °F 18.8 °F 29.76 in SW 1.0 mph 10.0 mph 9 % 0.00 in 918 W/m2
14:10 83.8 °F 18.9 °F 29.76 in Calm   10.0 mph 9 % 0.00 in 932 W/m2
14:15 84.1 °F 16.4 °F 29.76 in SW 4.0 mph 11.0 mph 8 % 0.00 in 914 W/m2
14:20 84.1 °F 16.4 °F 29.75 in SW 13.0 mph 13.0 mph 8 % 0.00 in 912 W/m2
14:25 84.1 °F 16.4 °F 29.75 in WNW 3.0 mph 15.0 mph 8 % 0.00 in 916 W/m2
14:30 84.3 °F 16.6 °F 29.75 in WNW 2.0 mph 15.0 mph 8 % 0.00 in 921 W/m2
14:35 84.5 °F 13.6 °F 29.75 in WSW 1.0 mph 11.0 mph 7 % 0.00 in 893 W/m2
14:40 84.4 °F 16.6 °F 29.74 in Calm   5.0 mph 8 % 0.00 in 907 W/m2
14:45 84.4 °F 19.4 °F 29.74 in Calm   6.0 mph 9 % 0.00 in 905 W/m2
14:50 84.7 °F 16.8 °F 29.74 in SSW 9.0 mph 15.0 mph 8 % 0.00 in 889 W/m2
14:55 84.9 °F 17.0 °F 29.74 in SSW 7.0 mph 16.0 mph 8 % 0.00 in 888 W/m2
15:00 84.9 °F 13.9 °F 29.73 in South 5.0 mph 16.0 mph 7 % 0.00 in 879 W/m2
15:05 84.9 °F 13.9 °F 29.73 in Calm   13.0 mph 7 % 0.00 in 863 W/m2
15:10 85.0 °F 17.1 °F 29.73 in SSW 5.0 mph 11.0 mph 8 % 0.00 in 835 W/m2
15:15 85.1 °F 14.1 °F 29.72 in SSW 5.0 mph 7.0 mph 7 % 0.00 in 833 W/m2
15:20 85.0 °F 17.1 °F 29.72 in Calm   8.0 mph 8 % 0.00 in 824 W/m2
15:25 85.2 °F 14.1 °F 29.71 in Calm   10.0 mph 7 % 0.00 in 810 W/m2
15:30 85.5 °F 14.4 °F 29.71 in SSW 6.0 mph 10.0 mph 7 % 0.00 in 807 W/m2
15:35 85.6 °F 14.4 °F 29.71 in South 9.0 mph 12.0 mph 7 % 0.00 in 810 W/m2
15:40 85.2 °F 14.1 °F 29.71 in South 2.0 mph 12.0 mph 7 % 0.00 in 744 W/m2
15:45 85.0 °F 14.0 °F 29.70 in SSW 9.0 mph 11.0 mph 7 % 0.00 in 751 W/m2
15:50 85.1 °F 14.1 °F 29.70 in South 5.0 mph 10.0 mph 7 % 0.00 in 747 W/m2
15:53 85.1 °F 14.1 °F 29.70 in SE 6.0 mph 10.0 mph 7 % 0.00 in 754 W/m2
15:58 85.3 °F 14.2 °F 29.69 in SSW 4.0 mph 10.0 mph 7 % 0.00 in 742 W/m2
16:03 85.5 °F 10.9 °F 29.69 in South 1.0 mph 10.0 mph 6 % 0.00 in 733 W/m2
16:08 85.2 °F 10.7 °F 29.69 in South 7.0 mph 15.0 mph 6 % 0.00 in 715 W/m2
16:13 84.9 °F 10.4 °F 29.69 in SSW 8.0 mph 15.0 mph 6 % 0.00 in 640 W/m2
16:15 85.0 °F 10.5 °F 29.68 in SE 3.0 mph 15.0 mph 6 % 0.00 in 717 W/m2
16:20 84.8 °F 10.4 °F 29.68 in South 9.0 mph 15.0 mph 6 % 0.00 in 698 W/m2
16:25 84.6 °F 10.2 °F 29.68 in Calm   14.0 mph 6 % 0.00 in 659 W/m2
16:30 84.3 °F 10.0 °F 29.69 in SSE 1.0 mph 11.0 mph 6 % 0.00 in 640 W/m2
16:35 84.5 °F 6.1 °F 29.69 in South 1.0 mph 13.0 mph 5 % 0.00 in 629 W/m2
16:40 84.5 °F 13.6 °F 29.69 in SSE 5.0 mph 13.0 mph 7 % 0.00 in 584 W/m2
16:45 84.2 °F 13.4 °F 29.69 in SSW 4.0 mph 6.0 mph 7 % 0.00 in 496 W/m2
16:50 84.0 °F 9.8 °F 29.68 in SSW 3.0 mph 16.0 mph 6 % 0.00 in 445 W/m2
16:55 83.8 °F 9.6 °F 29.68 in Calm   16.0 mph 6 % 0.00 in 529 W/m2
17:00 83.9 °F 9.7 °F 29.68 in Calm   13.0 mph 6 % 0.00 in 503 W/m2
17:05 83.8 °F 9.6 °F 29.67 in SSW 7.0 mph 11.0 mph 6 % 0.00 in 499 W/m2
17:10 83.4 °F 9.4 °F 29.68 in Calm   11.0 mph 6 % 0.00 in 487 W/m2
17:15 83.1 °F 9.1 °F 29.68 in SSW 5.0 mph 16.0 mph 6 % 0.00 in 482 W/m2
17:20 82.7 °F 8.9 °F 29.68 in SW 12.0 mph 16.0 mph 6 % 0.00 in 88 W/m2
17:25 82.3 °F 8.6 °F 29.68 in South 11.0 mph 23.0 mph 6 % 0.00 in 77 W/m2
17:30 82.1 °F 8.4 °F 29.67 in SSW 3.0 mph 23.0 mph 6 % 0.00 in 77 W/m2
17:35 81.9 °F 8.3 °F 29.67 in South 3.0 mph 15.0 mph 6 % 0.00 in 67 W/m2
17:40 81.7 °F 8.1 °F 29.67 in Calm   7.0 mph 6 % 0.00 in 69 W/m2
17:46 81.6 °F 11.5 °F 29.67 in SSE 2.0 mph 13.0 mph 7 % 0.00 in 70 W/m2
17:51 81.5 °F 11.4 °F 29.67 in SSE 8.0 mph 13.0 mph 7 % 0.00 in 69 W/m2
17:56 81.4 °F 7.9 °F 29.67 in SSE 1.0 mph 17.0 mph 6 % 0.00 in 60 W/m2
18:01 81.5 °F 8.0 °F 29.67 in South 1.0 mph 17.0 mph 6 % 0.00 in 58 W/m2
18:06 81.4 °F 7.9 °F 29.67 in South 1.0 mph 9.0 mph 6 % 0.00 in 56 W/m2
18:11 81.4 °F 7.9 °F 29.67 in SSW 2.0 mph 9.0 mph 6 % 0.00 in 58 W/m2
18:16 81.3 °F 7.8 °F 29.67 in South 2.0 mph 11.0 mph 6 % 0.00 in 54 W/m2
18:21 81.2 °F 11.2 °F 29.67 in Calm   11.0 mph 7 % 0.00 in 47 W/m2
18:26 81.0 °F 7.6 °F 29.67 in Calm   9.0 mph 6 % 0.00 in 40 W/m2
18:31 80.7 °F 7.4 °F 29.67 in South 1.0 mph 10.0 mph 6 % 0.00 in 39 W/m2
18:36 80.5 °F 7.3 °F 29.67 in Calm   12.0 mph 6 % 0.00 in 42 W/m2
18:41 80.2 °F 7.1 °F 29.67 in SSW 6.0 mph 12.0 mph 6 % 0.00 in 49 W/m2
18:46 80.0 °F 6.9 °F 29.67 in Calm   9.0 mph 6 % 0.00 in 54 W/m2
18:51 79.7 °F 6.7 °F 29.67 in South 4.0 mph 9.0 mph 6 % 0.00 in 58 W/m2
18:56 79.5 °F 6.5 °F 29.67 in SSW 6.0 mph 10.0 mph 6 % 0.00 in 58 W/m2
19:01 79.3 °F 6.4 °F 29.67 in SSW 2.0 mph 10.0 mph 6 % 0.00 in 56 W/m2
Rio Rancho, New Mexico Weather
Compliments of Weather Underground - 2 mb
top